sensor_id;sensor_type;location;lat;lon;timestamp;pressure;altitude;pressure_sealevel;temperature;humidity
29315;BME280;16320;53.954;9.506;2022-12-18T00:02:42;102609.16;;;-4.16;100.00
29315;BME280;16320;53.954;9.506;2022-12-18T00:05:49;102621.22;;;-4.13;100.00
29315;BME280;16320;53.954;9.506;2022-12-18T00:08:58;102625.59;;;-4.11;100.00
29315;BME280;16320;53.954;9.506;2022-12-18T00:12:04;102635.88;;;-4.11;100.00
29315;BME280;16320;53.954;9.506;2022-12-18T00:15:19;102627.16;;;-4.14;100.00
29315;BME280;16320;53.954;9.506;2022-12-18T00:18:24;102607.53;;;-4.14;100.00
29315;BME280;16320;53.954;9.506;2022-12-18T00:21:30;102608.13;;;-4.19;100.00
29315;BME280;16320;53.954;9.506;2022-12-18T00:24:35;102605.44;;;-4.23;100.00
29315;BME280;16320;53.954;9.506;2022-12-18T00:27:40;102597.75;;;-4.23;100.00
29315;BME280;16320;53.954;9.506;2022-12-18T00:30:46;102590.88;;;-4.24;100.00
29315;BME280;16320;53.954;9.506;2022-12-18T00:33:55;102592.75;;;-4.19;100.00
29315;BME280;16320;53.954;9.506;2022-12-18T00:37:00;102596.13;;;-4.20;100.00
29315;BME280;16320;53.954;9.506;2022-12-18T00:40:06;102609.09;;;-4.17;100.00
29315;BME280;16320;53.954;9.506;2022-12-18T00:43:11;102617.66;;;-4.17;100.00
29315;BME280;16320;53.954;9.506;2022-12-18T00:46:19;102605.75;;;-4.15;100.00
29315;BME280;16320;53.954;9.506;2022-12-18T00:49:23;102614.31;;;-4.14;100.00
29315;BME280;16320;53.954;9.506;2022-12-18T00:52:28;102600.50;;;-4.18;100.00
29315;BME280;16320;53.954;9.506;2022-12-18T00:55:32;102597.81;;;-4.21;100.00
29315;BME280;16320;53.954;9.506;2022-12-18T00:58:39;102596.13;;;-4.20;100.00
29315;BME280;16320;53.954;9.506;2022-12-18T01:01:44;102583.13;;;-4.25;100.00
29315;BME280;16320;53.954;9.506;2022-12-18T01:04:52;102590.50;;;-4.33;100.00
29315;BME280;16320;53.954;9.506;2022-12-18T01:07:57;102596.63;;;-4.29;100.00
29315;BME280;16320;53.954;9.506;2022-12-18T01:11:19;102611.16;;;-4.30;100.00
29315;BME280;16320;53.954;9.506;2022-12-18T01:14:25;102607.66;;;-4.32;100.00
29315;BME280;16320;53.954;9.506;2022-12-18T01:17:30;102622.16;;;-4.32;100.00
29315;BME280;16320;53.954;9.506;2022-12-18T01:20:35;102624.78;;;-4.31;100.00
29315;BME280;16320;53.954;9.506;2022-12-18T01:23:39;102625.56;;;-4.33;100.00
29315;BME280;16320;53.954;9.506;2022-12-18T01:26:46;102629.81;;;-4.34;100.00
29315;BME280;16320;53.954;9.506;2022-12-18T01:29:51;102626.19;;;-4.39;100.00
29315;BME280;16320;53.954;9.506;2022-12-18T01:32:56;102627.06;;;-4.38;100.00
29315;BME280;16320;53.954;9.506;2022-12-18T01:36:02;102622.75;;;-4.39;100.00
29315;BME280;16320;53.954;9.506;2022-12-18T01:39:12;102625.31;;;-4.39;100.00
29315;BME280;16320;53.954;9.506;2022-12-18T01:42:18;102622.44;;;-4.47;100.00
29315;BME280;16320;53.954;9.506;2022-12-18T01:45:29;102623.47;;;-4.42;100.00
29315;BME280;16320;53.954;9.506;2022-12-18T01:48:34;102620.69;;;-4.48;100.00
29315;BME280;16320;53.954;9.506;2022-12-18T01:51:38;102627.56;;;-4.47;100.00
29315;BME280;16320;53.954;9.506;2022-12-18T01:54:43;102638.75;;;-4.45;100.00
29315;BME280;16320;53.954;9.506;2022-12-18T01:57:54;102649.84;;;-4.46;100.00
29315;BME280;16320;53.954;9.506;2022-12-18T02:00:59;102656.84;;;-4.42;100.00
29315;BME280;16320;53.954;9.506;2022-12-18T02:04:25;102657.59;;;-4.45;100.00
29315;BME280;16320;53.954;9.506;2022-12-18T02:08:09;102652.34;;;-4.48;100.00
29315;BME280;16320;53.954;9.506;2022-12-18T02:15:27;102649.84;;;-4.46;100.00
29315;BME280;16320;53.954;9.506;2022-12-18T02:18:41;102646.34;;;-4.48;100.00
29315;BME280;16320;53.954;9.506;2022-12-18T02:21:58;102641.09;;;-4.51;100.00
29315;BME280;16320;53.954;9.506;2022-12-18T02:29:16;102649.59;;;-4.52;100.00
29315;BME280;16320;53.954;9.506;2022-12-18T02:32:31;102648.59;;;-4.56;100.00
29315;BME280;16320;53.954;9.506;2022-12-18T02:35:40;102654.72;;;-4.52;100.00
29315;BME280;16320;53.954;9.506;2022-12-18T02:38:46;102659.66;;;-4.57;100.00
29315;BME280;16320;53.954;9.506;2022-12-18T02:41:51;102649.53;;;-4.54;100.00
29315;BME280;16320;53.954;9.506;2022-12-18T02:44:56;102651.22;;;-4.54;100.00
29315;BME280;16320;53.954;9.506;2022-12-18T02:48:01;102644.31;;;-4.55;100.00
29315;BME280;16320;53.954;9.506;2022-12-18T02:51:23;102634.06;;;-4.55;100.00
29315;BME280;16320;53.954;9.506;2022-12-18T02:58:26;102645.69;;;-4.64;100.00
29315;BME280;16320;53.954;9.506;2022-12-18T03:01:55;102648.13;;;-4.67;100.00
29315;BME280;16320;53.954;9.506;2022-12-18T03:05:16;102648.06;;;-4.68;100.00
29315;BME280;16320;53.954;9.506;2022-12-18T03:08:26;102652.47;;;-4.66;100.00
29315;BME280;16320;53.954;9.506;2022-12-18T03:11:35;102654.81;;;-4.70;100.00
29315;BME280;16320;53.954;9.506;2022-12-18T03:15:16;102648.97;;;-4.68;100.00
29315;BME280;16320;53.954;9.506;2022-12-18T03:18:59;102655.81;;;-4.67;100.00
29315;BME280;16320;53.954;9.506;2022-12-18T03:22:07;102668.66;;;-4.67;100.00
29315;BME280;16320;53.954;9.506;2022-12-18T03:25:14;102672.97;;;-4.66;100.00
29315;BME280;16320;53.954;9.506;2022-12-18T03:28:21;102663.66;;;-4.64;100.00
29315;BME280;16320;53.954;9.506;2022-12-18T03:31:29;102665.41;;;-4.63;100.00
29315;BME280;16320;53.954;9.506;2022-12-18T03:34:38;102662.59;;;-4.69;100.00
29315;BME280;16320;53.954;9.506;2022-12-18T03:37:44;102657.44;;;-4.69;100.00
29315;BME280;16320;53.954;9.506;2022-12-18T03:44:36;102661.84;;;-4.66;100.00
29315;BME280;16320;53.954;9.506;2022-12-18T03:48:07;102658.31;;;-4.68;100.00
29315;BME280;16320;53.954;9.506;2022-12-18T03:51:42;102656.66;;;-4.68;100.00
29315;BME280;16320;53.954;9.506;2022-12-18T03:54:45;102647.06;;;-4.72;100.00
29315;BME280;16320;53.954;9.506;2022-12-18T03:57:52;102638.44;;;-4.74;100.00
29315;BME280;16320;53.954;9.506;2022-12-18T04:01:02;102638.44;;;-4.74;100.00
29315;BME280;16320;53.954;9.506;2022-12-18T04:04:10;102640.81;;;-4.79;100.00
29315;BME280;16320;53.954;9.506;2022-12-18T04:07:16;102635.69;;;-4.79;100.00
29315;BME280;16320;53.954;9.506;2022-12-18T04:10:21;102635.69;;;-4.79;100.00
29315;BME280;16320;53.954;9.506;2022-12-18T04:13:33;102638.91;;;-4.83;100.00
29315;BME280;16320;53.954;9.506;2022-12-18T04:16:38;102641.53;;;-4.81;100.00
29315;BME280;16320;53.954;9.506;2022-12-18T04:19:42;102657.19;;;-4.75;100.00
29315;BME280;16320;53.954;9.506;2022-12-18T04:22:47;102646.19;;;-4.72;100.00
29315;BME280;16320;53.954;9.506;2022-12-18T04:25:51;102644.44;;;-4.73;100.00
29315;BME280;16320;53.954;9.506;2022-12-18T04:28:56;102636.53;;;-4.78;100.00
29315;BME280;16320;53.954;9.506;2022-12-18T04:32:00;102638.44;;;-4.74;100.00
29315;BME280;16320;53.954;9.506;2022-12-18T04:35:04;102641.53;;;-4.81;100.00
29315;BME280;16320;53.954;9.506;2022-12-18T04:38:12;102640.66;;;-4.82;100.00
29315;BME280;16320;53.954;9.506;2022-12-18T04:41:16;102641.59;;;-4.80;100.00
29315;BME280;16320;53.954;9.506;2022-12-18T04:44:21;102639.19;;;-4.76;100.00
29315;BME280;16320;53.954;9.506;2022-12-18T04:47:26;102633.31;;;-4.74;100.00
29315;BME280;16320;53.954;9.506;2022-12-18T04:50:30;102641.81;;;-4.75;100.00
29315;BME280;16320;53.954;9.506;2022-12-18T04:53:35;102637.53;;;-4.74;100.00
29315;BME280;16320;53.954;9.506;2022-12-18T04:56:40;102634.81;;;-4.79;100.00
29315;BME280;16320;53.954;9.506;2022-12-18T04:59:44;102644.22;;;-4.78;100.00
29315;BME280;16320;53.954;9.506;2022-12-18T05:02:49;102645.00;;;-4.81;100.00
29315;BME280;16320;53.954;9.506;2022-12-18T05:05:54;102658.69;;;-4.80;100.00
29315;BME280;16320;53.954;9.506;2022-12-18T05:08:58;102657.88;;;-4.79;100.00
29315;BME280;16320;53.954;9.506;2022-12-18T05:12:02;102660.19;;;-4.85;100.00
29315;BME280;16320;53.954;9.506;2022-12-18T05:15:07;102664.53;;;-4.83;100.00
29315;BME280;16320;53.954;9.506;2022-12-18T05:18:12;102667.94;;;-4.84;100.00
29315;BME280;16320;53.954;9.506;2022-12-18T05:21:17;102689.19;;;-4.86;100.00
29315;BME280;16320;53.954;9.506;2022-12-18T05:24:22;102687.44;;;-4.87;100.00
29315;BME280;16320;53.954;9.506;2022-12-18T05:27:26;102685.69;;;-4.88;100.00
29315;BME280;16320;53.954;9.506;2022-12-18T05:30:31;102686.28;;;-4.94;100.00
29315;BME280;16320;53.954;9.506;2022-12-18T05:33:36;102695.81;;;-4.91;100.00
29315;BME280;16320;53.954;9.506;2022-12-18T05:36:41;102687.25;;;-4.92;100.00
29315;BME280;16320;53.954;9.506;2022-12-18T05:39:47;102683.59;;;-4.97;100.00
29315;BME280;16320;53.954;9.506;2022-12-18T05:42:51;102682.56;;;-5.01;100.00
29315;BME280;16320;53.954;9.506;2022-12-18T05:45:56;102686.91;;;-5.00;100.00
29315;BME280;16320;53.954;9.506;2022-12-18T05:49:01;102688.38;;;-5.05;100.00
29315;BME280;16320;53.954;9.506;2022-12-18T05:52:07;102687.63;;;-5.02;100.00
29315;BME280;16320;53.954;9.506;2022-12-18T05:55:11;102683.19;;;-5.06;100.00
29315;BME280;16320;53.954;9.506;2022-12-18T05:58:16;102685.75;;;-5.06;100.00
29315;BME280;16320;53.954;9.506;2022-12-18T06:01:24;102692.50;;;-5.08;100.00
29315;BME280;16320;53.954;9.506;2022-12-18T06:04:30;102693.50;;;-5.05;100.00
29315;BME280;16320;53.954;9.506;2022-12-18T06:07:34;102697.69;;;-5.07;100.00
29315;BME280;16320;53.954;9.506;2022-12-18T06:10:48;102707.13;;;-5.06;100.00
29315;BME280;16320;53.954;9.506;2022-12-18T06:13:55;102700.25;;;-5.07;100.00
29315;BME280;16320;53.954;9.506;2022-12-18T06:17:02;102703.63;;;-5.08;100.00
29315;BME280;16320;53.954;9.506;2022-12-18T06:20:07;102698.34;;;-5.11;100.00
29315;BME280;16320;53.954;9.506;2022-12-18T06:23:12;102708.63;;;-5.11;100.00
29315;BME280;16320;53.954;9.506;2022-12-18T06:26:16;102695.88;;;-5.09;100.00
29315;BME280;16320;53.954;9.506;2022-12-18T06:29:20;102706.78;;;-5.13;100.00
29315;BME280;16320;53.954;9.506;2022-12-18T06:32:26;102710.16;;;-5.15;100.00
29315;BME280;16320;53.954;9.506;2022-12-18T06:35:32;102712.72;;;-5.15;100.00
29315;BME280;16320;53.954;9.506;2022-12-18T06:38:39;102712.72;;;-5.15;100.00
29315;BME280;16320;53.954;9.506;2022-12-18T06:41:45;102721.41;;;-5.11;100.00
29315;BME280;16320;53.954;9.506;2022-12-18T06:44:49;102710.09;;;-5.16;100.00
29315;BME280;16320;53.954;9.506;2022-12-18T06:47:54;102707.53;;;-5.16;100.00
29315;BME280;16320;53.954;9.506;2022-12-18T06:50:59;102707.59;;;-5.15;100.00
29315;BME280;16320;53.954;9.506;2022-12-18T06:54:05;102710.69;;;-5.22;100.00
29315;BME280;16320;53.954;9.506;2022-12-18T06:57:10;102714.16;;;-5.21;100.00
29315;BME280;16320;53.954;9.506;2022-12-18T07:00:14;102714.88;;;-5.24;100.00
29315;BME280;16320;53.954;9.506;2022-12-18T07:03:18;102713.31;;;-5.20;100.00
29315;BME280;16320;53.954;9.506;2022-12-18T07:06:25;102722.47;;;-5.25;100.00
29315;BME280;16320;53.954;9.506;2022-12-18T07:09:29;102727.38;;;-5.30;100.00
29315;BME280;16320;53.954;9.506;2022-12-18T07:12:34;102735.16;;;-5.28;100.00
29315;BME280;16320;53.954;9.506;2022-12-18T07:15:38;102748.03;;;-5.27;100.00
29315;BME280;16320;53.954;9.506;2022-12-18T07:18:43;102755.50;;;-5.31;100.00
29315;BME280;16320;53.954;9.506;2022-12-18T07:21:49;102756.53;;;-5.28;100.00
29315;BME280;16320;53.954;9.506;2022-12-18T07:24:53;102757.41;;;-5.27;100.00
29315;BME280;16320;53.954;9.506;2022-12-18T07:27:57;102751.69;;;-5.22;100.00
29315;BME280;16320;53.954;9.506;2022-12-18T07:31:07;102752.56;;;-5.21;100.00
29315;BME280;16320;53.954;9.506;2022-12-18T07:34:13;102755.94;;;-5.22;100.00
29315;BME280;16320;53.954;9.506;2022-12-18T07:37:18;102761.78;;;-5.25;100.00
29315;BME280;16320;53.954;9.506;2022-12-18T07:40:22;102760.25;;;-5.21;100.00
29315;BME280;16320;53.954;9.506;2022-12-18T07:43:26;102762.81;;;-5.21;100.00
29315;BME280;16320;53.954;9.506;2022-12-18T07:46:31;102771.31;;;-5.22;100.00
29315;BME280;16320;53.954;9.506;2022-12-18T07:49:35;102771.16;;;-5.25;100.00
29315;BME280;16320;53.954;9.506;2022-12-18T07:52:39;102767.81;;;-5.24;100.00
29315;BME280;16320;53.954;9.506;2022-12-18T07:55:45;102764.41;;;-5.23;100.00
29315;BME280;16320;53.954;9.506;2022-12-18T07:59:10;102766.19;;;-5.22;100.00
29315;BME280;16320;53.954;9.506;2022-12-18T08:02:14;102759.50;;;-5.19;100.00
29315;BME280;16320;53.954;9.506;2022-12-18T08:05:19;102758.09;;;-5.12;100.00
29315;BME280;16320;53.954;9.506;2022-12-18T08:08:25;102758.25;;;-5.09;100.00
29315;BME280;16320;53.954;9.506;2022-12-18T08:11:29;102754.09;;;-5.07;100.00
29315;BME280;16320;53.954;9.506;2022-12-18T08:14:34;102765.41;;;-5.02;100.00
29315;BME280;16320;53.954;9.506;2022-12-18T08:17:38;102756.91;;;-5.01;100.00
29315;BME280;16320;53.954;9.506;2022-12-18T08:20:43;102756.38;;;-4.93;100.00
29315;BME280;16320;53.954;9.506;2022-12-18T08:23:47;102758.41;;;-4.86;100.00
29315;BME280;16320;53.954;9.506;2022-12-18T08:26:54;102743.22;;;-4.82;100.00
29315;BME280;16320;53.954;9.506;2022-12-18T08:30:21;102737.38;;;-4.79;100.00
29315;BME280;16320;53.954;9.506;2022-12-18T08:33:25;102745.06;;;-4.79;100.00
29315;BME280;16320;53.954;9.506;2022-12-18T08:36:30;102750.44;;;-4.73;100.00
29315;BME280;16320;53.954;9.506;2022-12-18T08:39:34;102753.13;;;-4.70;100.00
29315;BME280;16320;53.954;9.506;2022-12-18T08:42:39;102762.66;;;-4.67;100.00
29315;BME280;16320;53.954;9.506;2022-12-18T08:46:02;102757.53;;;-4.67;100.00
29315;BME280;16320;53.954;9.506;2022-12-18T08:49:09;102761.78;;;-4.68;100.00
29315;BME280;16320;53.954;9.506;2022-12-18T08:52:13;102762.94;;;-4.61;100.00
29315;BME280;16320;53.954;9.506;2022-12-18T08:55:18;102771.50;;;-4.61;100.00
29315;BME280;16320;53.954;9.506;2022-12-18T08:58:23;102765.72;;;-4.56;100.00
29315;BME280;16320;53.954;9.506;2022-12-18T09:01:28;102762.25;;;-4.57;100.00
29315;BME280;16320;53.954;9.506;2022-12-18T09:04:33;102763.94;;;-4.57;100.00
29315;BME280;16320;53.954;9.506;2022-12-18T09:07:37;102766.72;;;-4.53;100.00
29315;BME280;16320;53.954;9.506;2022-12-18T09:10:47;102760.94;;;-4.47;100.00
29315;BME280;16320;53.954;9.506;2022-12-18T09:13:53;102753.19;;;-4.49;100.00
29315;BME280;16320;53.954;9.506;2022-12-18T09:16:58;102752.59;;;-4.43;100.00
29315;BME280;16320;53.954;9.506;2022-12-18T09:20:05;102757.22;;;-4.34;100.00
29315;BME280;16320;53.954;9.506;2022-12-18T09:23:13;102760.06;;;-4.28;100.00
29315;BME280;16320;53.954;9.506;2022-12-18T09:26:18;102752.63;;;-4.22;100.00
29315;BME280;16320;53.954;9.506;2022-12-18T09:29:23;102755.38;;;-4.17;100.00
29315;BME280;16320;53.954;9.506;2022-12-18T09:32:27;102761.56;;;-4.12;100.00
29315;BME280;16320;53.954;9.506;2022-12-18T09:35:32;102760.75;;;-4.11;100.00
29315;BME280;16320;53.954;9.506;2022-12-18T09:38:37;102762.38;;;-4.13;100.00
29315;BME280;16320;53.954;9.506;2022-12-18T09:44:53;102749.34;;;-3.97;100.00
29315;BME280;16320;53.954;9.506;2022-12-18T09:48:01;102744.41;;;-3.92;100.00
29315;BME280;16320;53.954;9.506;2022-12-18T09:51:26;102741.25;;;-3.87;100.00
29315;BME280;16320;53.954;9.506;2022-12-18T09:54:47;102743.41;;;-3.75;100.00
29315;BME280;16320;53.954;9.506;2022-12-18T09:58:26;102756.56;;;-3.67;100.00
29315;BME280;16320;53.954;9.506;2022-12-18T10:01:38;102759.59;;;-3.55;100.00
29315;BME280;16320;53.954;9.506;2022-12-18T10:05:19;102757.34;;;-3.47;100.00
29315;BME280;16320;53.954;9.506;2022-12-18T10:09:12;102754.03;;;-3.44;100.00
29315;BME280;16320;53.954;9.506;2022-12-18T10:13:07;102764.31;;;-3.44;100.00
29315;BME280;16320;53.954;9.506;2022-12-18T10:19:59;102766.03;;;-3.21;100.00
29315;BME280;16320;53.954;9.506;2022-12-18T10:27:16;102760.09;;;-2.97;100.00
29315;BME280;16320;53.954;9.506;2022-12-18T10:30:23;102763.91;;;-2.62;100.00
29315;BME280;16320;53.954;9.506;2022-12-18T10:33:33;102761.81;;;-2.24;100.00
29315;BME280;16320;53.954;9.506;2022-12-18T10:36:38;102748.56;;;-2.09;100.00
29315;BME280;16320;53.954;9.506;2022-12-18T10:39:44;102734.50;;;-2.18;100.00
29315;BME280;16320;53.954;9.506;2022-12-18T10:43:13;102725.50;;;-2.06;100.00
29315;BME280;16320;53.954;9.506;2022-12-18T10:46:20;102729.41;;;-1.91;100.00
29315;BME280;16320;53.954;9.506;2022-12-18T10:49:29;102715.88;;;-1.84;100.00
29315;BME280;16320;53.954;9.506;2022-12-18T10:52:34;102719.47;;;-1.79;100.00
29315;BME280;16320;53.954;9.506;2022-12-18T10:55:46;102715.88;;;-1.84;100.00
29315;BME280;16320;53.954;9.506;2022-12-18T10:59:04;102712.78;;;-1.74;100.00
29315;BME280;16320;53.954;9.506;2022-12-18T11:02:35;102706.41;;;-1.56;100.00
29315;BME280;16320;53.954;9.506;2022-12-18T11:05:39;102705.13;;;-1.42;100.00
29315;BME280;16320;53.954;9.506;2022-12-18T11:09:04;102694.72;;;-1.45;100.00
29315;BME280;16320;53.954;9.506;2022-12-18T11:12:20;102707.22;;;-1.59;100.00
29315;BME280;16320;53.954;9.506;2022-12-18T11:15:29;102710.25;;;-1.71;100.00
29315;BME280;16320;53.954;9.506;2022-12-18T11:18:35;102719.66;;;-1.73;100.00
29315;BME280;16320;53.954;9.506;2022-12-18T11:21:43;102723.94;;;-1.73;100.00
29315;BME280;16320;53.954;9.506;2022-12-18T11:28:37;102703.88;;;-1.83;100.00
29315;BME280;16320;53.954;9.506;2022-12-18T11:31:43;102705.75;;;-1.78;100.00
29315;BME280;16320;53.954;9.506;2022-12-18T11:42:05;102686.66;;;-1.85;100.00
29315;BME280;16320;53.954;9.506;2022-12-18T11:48:38;102679.91;;;-1.81;100.00
29315;BME280;16320;53.954;9.506;2022-12-18T11:52:28;102688.53;;;-1.79;100.00
29315;BME280;16320;53.954;9.506;2022-12-18T11:59:16;102674.44;;;-1.90;100.00
29315;BME280;16320;53.954;9.506;2022-12-18T12:09:55;102670.88;;;-1.95;100.00
29315;BME280;16320;53.954;9.506;2022-12-18T12:17:33;102652.56;;;-2.05;100.00
29315;BME280;16320;53.954;9.506;2022-12-18T12:21:13;102639.69;;;-2.05;100.00
29315;BME280;16320;53.954;9.506;2022-12-18T12:25:01;102634.53;;;-2.05;100.00
29315;BME280;16320;53.954;9.506;2022-12-18T12:35:06;102592.69;;;-2.25;100.00
29315;BME280;16320;53.954;9.506;2022-12-18T12:38:24;102592.66;;;-2.26;100.00
29315;BME280;16320;53.954;9.506;2022-12-18T12:41:32;102595.31;;;-2.23;100.00
29315;BME280;16320;53.954;9.506;2022-12-18T12:44:58;102602.34;;;-2.19;100.00
29315;BME280;16320;53.954;9.506;2022-12-18T12:52:10;102601.13;;;-2.30;100.00
29315;BME280;16320;53.954;9.506;2022-12-18T12:55:26;102605.47;;;-2.28;100.00
29315;BME280;16320;53.954;9.506;2022-12-18T12:58:43;102599.66;;;-2.22;100.00
29315;BME280;16320;53.954;9.506;2022-12-18T13:05:38;102591.63;;;-2.04;100.00
29315;BME280;16320;53.954;9.506;2022-12-18T13:08:58;102582.94;;;-2.08;100.00
29315;BME280;16320;53.954;9.506;2022-12-18T13:12:11;102584.09;;;-1.98;100.00
29315;BME280;16320;53.954;9.506;2022-12-18T13:15:49;102575.31;;;-2.05;100.00
29315;BME280;16320;53.954;9.506;2022-12-18T13:19:22;102584.66;;;-2.07;100.00
29315;BME280;16320;53.954;9.506;2022-12-18T13:22:50;102581.88;;;-2.14;100.00
29315;BME280;16320;53.954;9.506;2022-12-18T13:29:44;102574.28;;;-2.10;100.00
29315;BME280;16320;53.954;9.506;2022-12-18T13:36:32;102580.75;;;-2.23;100.00
29315;BME280;16320;53.954;9.506;2022-12-18T13:39:38;102584.88;;;-2.28;100.00
29315;BME280;16320;53.954;9.506;2022-12-18T13:42:43;102584.94;;;-2.26;100.00
29315;BME280;16320;53.954;9.506;2022-12-18T13:46:29;102590.94;;;-2.27;100.00
29315;BME280;16320;53.954;9.506;2022-12-18T13:49:43;102587.94;;;-2.40;100.00
29315;BME280;16320;53.954;9.506;2022-12-18T13:52:48;102582.00;;;-2.38;100.00
29315;BME280;16320;53.954;9.506;2022-12-18T13:55:56;102578.41;;;-2.44;100.00
29315;BME280;16320;53.954;9.506;2022-12-18T13:59:19;102572.50;;;-2.40;100.00
29315;BME280;16320;53.954;9.506;2022-12-18T14:02:29;102577.47;;;-2.46;100.00
29315;BME280;16320;53.954;9.506;2022-12-18T14:05:36;102571.19;;;-2.54;100.00
29315;BME280;16320;53.954;9.506;2022-12-18T14:08:48;102573.59;;;-2.59;100.00
29315;BME280;16320;53.954;9.506;2022-12-18T14:11:55;102565.22;;;-2.53;100.00
29315;BME280;16320;53.954;9.506;2022-12-18T14:15:31;102563.28;;;-2.60;100.00
29315;BME280;16320;53.954;9.506;2022-12-18T14:18:56;102556.56;;;-2.56;100.00
29315;BME280;16320;53.954;9.506;2022-12-18T14:22:26;102558.97;;;-2.61;100.00
29315;BME280;16320;53.954;9.506;2022-12-18T14:25:37;102566.69;;;-2.61;100.00
29315;BME280;16320;53.954;9.506;2022-12-18T14:28:47;102558.13;;;-2.60;100.00
29315;BME280;16320;53.954;9.506;2022-12-18T14:32:16;102560.53;;;-2.66;100.00
29315;BME280;16320;53.954;9.506;2022-12-18T14:35:22;102560.09;;;-2.79;100.00
29315;BME280;16320;53.954;9.506;2022-12-18T14:38:32;102544.56;;;-2.82;100.00
29315;BME280;16320;53.954;9.506;2022-12-18T14:41:37;102549.13;;;-3.00;100.00
29315;BME280;16320;53.954;9.506;2022-12-18T14:44:46;102535.13;;;-3.08;100.00
29315;BME280;16320;53.954;9.506;2022-12-18T14:48:22;102531.44;;;-3.17;100.00
29315;BME280;16320;53.954;9.506;2022-12-18T14:51:32;102531.50;;;-3.14;100.00
29315;BME280;16320;53.954;9.506;2022-12-18T14:54:40;102524.63;;;-3.15;100.00
29315;BME280;16320;53.954;9.506;2022-12-18T15:05:29;102526.47;;;-3.10;100.00
29315;BME280;16320;53.954;9.506;2022-12-18T15:08:44;102524.75;;;-3.11;100.00
29315;BME280;16320;53.954;9.506;2022-12-18T15:11:59;102511.88;;;-3.11;100.00
29315;BME280;16320;53.954;9.506;2022-12-18T15:18:45;102502.22;;;-3.19;100.00
29315;BME280;16320;53.954;9.506;2022-12-18T15:21:54;102495.22;;;-3.23;100.00
29315;BME280;16320;53.954;9.506;2022-12-18T15:25:32;102490.63;;;-3.32;100.00
29315;BME280;16320;53.954;9.506;2022-12-18T15:28:54;102484.75;;;-3.29;100.00
29315;BME280;16320;53.954;9.506;2022-12-18T15:32:14;102479.59;;;-3.29;100.00
29315;BME280;16320;53.954;9.506;2022-12-18T15:35:24;102456.41;;;-3.31;100.00
29315;BME280;16320;53.954;9.506;2022-12-18T15:38:30;102457.28;;;-3.30;100.00
29315;BME280;16320;53.954;9.506;2022-12-18T15:41:40;102453.91;;;-3.29;100.00
29315;BME280;16320;53.954;9.506;2022-12-18T15:45:12;102452.25;;;-3.27;100.00
29315;BME280;16320;53.954;9.506;2022-12-18T15:48:42;102458.28;;;-3.26;100.00
29315;BME280;16320;53.954;9.506;2022-12-18T15:52:08;102452.41;;;-3.22;100.00
29315;BME280;16320;53.954;9.506;2022-12-18T15:55:26;102442.91;;;-3.25;100.00
29315;BME280;16320;53.954;9.506;2022-12-18T15:58:51;102452.25;;;-3.27;100.00
29315;BME280;16320;53.954;9.506;2022-12-18T16:02:24;102444.53;;;-3.27;100.00
29315;BME280;16320;53.954;9.506;2022-12-18T16:05:46;102440.25;;;-3.28;100.00
29315;BME280;16320;53.954;9.506;2022-12-18T16:09:12;102443.72;;;-3.26;100.00
29315;BME280;16320;53.954;9.506;2022-12-18T16:12:35;102439.28;;;-3.30;100.00
29315;BME280;16320;53.954;9.506;2022-12-18T16:15:50;102438.22;;;-3.37;100.00
29315;BME280;16320;53.954;9.506;2022-12-18T16:19:06;102428.00;;;-3.35;100.00
29315;BME280;16320;53.954;9.506;2022-12-18T16:22:25;102438.28;;;-3.35;100.00
29315;BME280;16320;53.954;9.506;2022-12-18T16:25:56;102440.03;;;-3.34;100.00
29315;BME280;16320;53.954;9.506;2022-12-18T16:29:07;102438.06;;;-3.41;100.00
29315;BME280;16320;53.954;9.506;2022-12-18T16:32:21;102431.09;;;-3.45;100.00
29315;BME280;16320;53.954;9.506;2022-12-18T16:35:34;102424.19;;;-3.46;100.00
29315;BME280;16320;53.954;9.506;2022-12-18T16:38:52;102430.31;;;-3.43;100.00
29315;BME280;16320;53.954;9.506;2022-12-18T16:42:26;102416.75;;;-3.39;100.00
29315;BME280;16320;53.954;9.506;2022-12-18T16:45:47;102402.00;;;-3.44;100.00
29315;BME280;16320;53.954;9.506;2022-12-18T16:49:11;102392.66;;;-3.42;100.00
29315;BME280;16320;53.954;9.506;2022-12-18T16:52:36;102383.28;;;-3.40;100.00
29315;BME280;16320;53.954;9.506;2022-12-18T16:55:53;102389.44;;;-3.35;100.00
29315;BME280;16320;53.954;9.506;2022-12-18T16:59:11;102374.88;;;-3.36;100.00
29315;BME280;16320;53.954;9.506;2022-12-18T17:02:19;102377.38;;;-3.38;100.00
29315;BME280;16320;53.954;9.506;2022-12-18T17:05:35;102366.03;;;-3.44;100.00
29315;BME280;16320;53.954;9.506;2022-12-18T17:08:39;102348.97;;;-3.42;100.00
29315;BME280;16320;53.954;9.506;2022-12-18T17:11:51;102355.78;;;-3.44;100.00
29315;BME280;16320;53.954;9.506;2022-12-18T17:14:57;102355.84;;;-3.41;100.00
29315;BME280;16320;53.954;9.506;2022-12-18T17:18:02;102351.66;;;-3.39;100.00
29315;BME280;16320;53.954;9.506;2022-12-18T17:21:08;102358.56;;;-3.37;100.00
29315;BME280;16320;53.954;9.506;2022-12-18T17:24:13;102366.22;;;-3.38;100.00
29315;BME280;16320;53.954;9.506;2022-12-18T17:27:18;102354.31;;;-3.36;100.00
29315;BME280;16320;53.954;9.506;2022-12-18T17:30:26;102351.78;;;-3.35;100.00
29315;BME280;16320;53.954;9.506;2022-12-18T17:33:31;102349.94;;;-3.39;100.00
29315;BME280;16320;53.954;9.506;2022-12-18T17:36:36;102347.41;;;-3.37;100.00
29315;BME280;16320;53.954;9.506;2022-12-18T17:39:43;102342.19;;;-3.40;100.00
29315;BME280;16320;53.954;9.506;2022-12-18T17:42:52;102339.66;;;-3.39;100.00
29315;BME280;16320;53.954;9.506;2022-12-18T17:46:02;102332.00;;;-3.37;100.00
29315;BME280;16320;53.954;9.506;2022-12-18T17:49:12;102340.53;;;-3.38;100.00
29315;BME280;16320;53.954;9.506;2022-12-18T17:52:21;102324.25;;;-3.39;100.00
29315;BME280;16320;53.954;9.506;2022-12-18T17:55:40;102314.69;;;-3.43;100.00
29315;BME280;16320;53.954;9.506;2022-12-18T17:58:45;102325.00;;;-3.41;100.00